Time;durP1;ratioP1;P1;durP2;ratioP2;P2;SDS_P1;SDS_P2;PMS_P1;PMS_P2;Temp;Humidity;BMP_temperature;BMP_pressure;BME280_temperature;BME280_humidity;BME280_pressure;Samples;Min_cycle;Max_cycle;Signal;HPM_P1;HPM_P2
2022/12/03 00:00:50;;;;;;;76.80;30.40;;;;;;;-2.44;86.50;101732.23;100175;1293;79782;-56
2022/12/03 00:03:23;;;;;;;70.10;29.20;;;;;;;-2.42;86.30;101732.32;100231;1294;97863;-57
2022/12/03 00:05:55;;;;;;;70.30;29.70;;;;;;;-2.37;86.45;101729.10;100183;1295;94880;-57
2022/12/03 00:08:27;;;;;;;71.00;28.50;;;;;;;-2.35;86.34;101726.19;100175;1293;83142;-57
2022/12/03 00:11:03;;;;;;;84.20;33.00;;;;;;;-2.28;86.45;101729.86;100202;1293;87009;-56
2022/12/03 00:13:33;;;;;;;60.10;27.00;;;;;;;-2.28;86.32;101724.56;100193;1293;77830;-56
2022/12/03 00:16:03;;;;;;;65.80;30.10;;;;;;;-2.32;86.42;101723.73;100182;1301;97913;-55
2022/12/03 00:18:35;;;;;;;77.80;32.50;;;;;;;-2.35;86.30;101722.27;100215;1293;94711;-56
2022/12/03 00:21:08;;;;;;;70.80;30.20;;;;;;;-2.35;86.34;101718.91;100201;1294;82033;-56
2022/12/03 00:23:37;;;;;;;69.50;30.50;;;;;;;-2.33;86.15;101720.61;99870;1293;433468;-57
2022/12/03 00:26:09;;;;;;;71.90;30.00;;;;;;;-2.36;86.03;101718.29;100113;1294;82788;-57
2022/12/03 00:28:38;;;;;;;66.50;29.90;;;;;;;-2.36;85.99;101719.02;100202;1294;98106;-58
2022/12/03 00:31:10;;;;;;;68.80;28.60;;;;;;;-2.35;86.24;101713.30;100195;1299;94469;-57
2022/12/03 00:33:41;;;;;;;67.90;28.80;;;;;;;-2.34;86.11;101713.61;100168;1293;83478;-56
2022/12/03 00:36:13;;;;;;;68.80;28.60;;;;;;;-2.35;86.14;101712.57;100158;1299;86496;-57
2022/12/03 00:38:44;;;;;;;60.40;27.00;;;;;;;-2.35;86.32;101711.73;100207;1293;81336;-58
2022/12/03 00:41:23;;;;;;;67.20;29.00;;;;;;;-2.33;86.03;101708.79;100210;1293;97797;-58
2022/12/03 00:43:56;;;;;;;65.90;27.60;;;;;;;-2.27;86.00;101707.95;100187;1285;95414;-57
2022/12/03 00:46:28;;;;;;;65.80;28.00;;;;;;;-2.24;86.06;101709.36;100213;1301;82175;-58
2022/12/03 00:48:59;;;;;;;60.80;26.50;;;;;;;-2.25;85.96;101707.14;100202;1293;87852;-56
2022/12/03 00:51:30;;;;;;;59.60;26.30;;;;;;;-2.26;86.15;101704.38;100194;1293;77230;-56
2022/12/03 00:54:05;;;;;;;58.70;27.70;;;;;;;-2.32;86.12;101708.70;100222;1294;97875;-57
2022/12/03 00:56:36;;;;;;;62.80;26.70;;;;;;;-2.43;86.11;101706.80;100182;1285;93499;-55
2022/12/03 00:59:07;;;;;;;65.70;26.90;;;;;;;-2.48;85.93;101708.44;100118;1301;84237;-58
2022/12/03 01:01:39;;;;;;;61.50;26.40;;;;;;;-2.46;86.06;101706.09;100135;1296;87724;-58
2022/12/03 01:04:14;;;;;;;61.60;27.00;;;;;;;-2.43;86.12;101708.58;100165;1300;80635;-56
2022/12/03 01:06:44;;;;;;;70.10;30.00;;;;;;;-2.43;86.18;101703.79;100149;1293;97919;-56
2022/12/03 01:09:15;;;;;;;72.80;30.80;;;;;;;-2.41;86.31;101702.97;100184;1295;94735;-56
2022/12/03 01:11:51;;;;;;;89.50;36.70;;;;;;;-2.36;86.15;101701.35;100215;1295;82304;-56
2022/12/03 01:14:21;;;;;;;67.00;28.50;;;;;;;-2.33;86.37;101697.67;100179;1294;88780;-56
2022/12/03 01:16:51;;;;;;;67.20;30.20;;;;;;;-2.32;86.08;101696.41;100207;1293;78516;-56
2022/12/03 01:19:20;;;;;;;60.00;26.10;;;;;;;-2.26;86.19;101697.16;100216;1293;97836;-57
2022/12/03 01:21:56;;;;;;;72.20;30.50;;;;;;;-2.27;86.27;101692.96;100208;1292;93082;-57
2022/12/03 01:24:28;;;;;;;70.70;29.40;;;;;;;-2.32;85.92;101695.52;100195;1292;82363;-56
2022/12/03 01:26:59;;;;;;;61.90;28.00;;;;;;;-2.35;86.10;101695.45;100241;1293;88167;-55
2022/12/03 01:29:37;;;;;;;64.60;28.00;;;;;;;-2.37;86.23;101697.19;100206;1299;79640;-56
2022/12/03 01:32:18;;;;;;;65.60;29.40;;;;;;;-2.45;86.04;101690.51;100206;1300;96234;-56
2022/12/03 01:34:51;;;;;;;78.00;32.00;;;;;;;-2.49;85.99;101691.91;100181;1290;95964;-56
2022/12/03 01:37:26;;;;;;;102.60;38.10;;;;;;;-2.52;86.22;101694.39;100180;1297;83014;-56
2022/12/03 01:40:00;;;;;;;60.20;26.50;;;;;;;-2.48;86.20;101692.75;100166;1298;86851;-56
2022/12/03 01:42:39;;;;;;;65.40;27.20;;;;;;;-2.41;86.31;101691.19;100208;1300;81758;-57
2022/12/03 01:45:19;;;;;;;70.90;28.70;;;;;;;-2.36;86.27;101694.30;100222;1293;96065;-56
2022/12/03 01:47:52;;;;;;;82.30;32.60;;;;;;;-2.33;86.33;101692.58;100188;1299;95546;-57
2022/12/03 01:50:36;;;;;;;79.90;31.10;;;;;;;-2.27;86.29;101689.09;100227;1293;82231;-58
2022/12/03 01:53:05;;;;;;;82.60;34.20;;;;;;;-2.23;86.26;101691.16;100202;1301;86723;-57
2022/12/03 01:55:38;;;;;;;72.60;30.10;;;;;;;-2.21;85.95;101687.16;100220;1289;78457;-57
2022/12/03 01:58:14;;;;;;;97.00;37.00;;;;;;;-2.24;86.29;101685.75;100245;1295;98481;-58
2022/12/03 02:00:43;;;;;;;59.00;27.40;;;;;;;-2.26;85.92;101684.79;100164;1293;95644;-58
2022/12/03 02:03:21;;;;;;;95.00;38.30;;;;;;;-2.29;85.96;101685.13;100240;1300;82553;-56
2022/12/03 02:05:56;;;;;;;57.50;26.60;;;;;;;-2.34;86.01;101683.95;100223;1293;87346;-55
2022/12/03 02:08:38;;;;;;;69.80;31.60;;;;;;;-2.35;86.02;101683.98;100204;1301;81695;-57
2022/12/03 02:11:14;;;;;;;55.60;25.60;;;;;;;-2.30;86.00;101690.27;100306;1294;97329;-57
2022/12/03 02:13:45;;;;;;;63.60;29.20;;;;;;;-2.24;85.98;101688.94;100286;1294;94483;-58
2022/12/03 02:16:16;;;;;;;54.20;24.60;;;;;;;-2.24;85.86;101689.29;100286;1295;81325;-58
2022/12/03 02:18:48;;;;;;;49.70;24.70;;;;;;;-2.17;85.95;101685.23;100184;1294;88803;-56
2022/12/03 02:21:27;;;;;;;55.70;27.90;;;;;;;-2.18;86.04;101688.78;100262;1294;78965;-56
2022/12/03 02:24:07;;;;;;;59.30;28.30;;;;;;;-2.17;85.84;101688.58;100256;1294;98187;-56
2022/12/03 02:26:40;;;;;;;52.20;23.60;;;;;;;-2.18;85.69;101689.30;100234;1294;95442;-56
2022/12/03 02:29:11;;;;;;;54.30;25.80;;;;;;;-2.20;85.82;101688.38;100281;1298;81822;-58
2022/12/03 02:31:44;;;;;;;55.20;25.40;;;;;;;-2.23;85.73;101694.89;100250;1294;86239;-58
2022/12/03 02:34:40;;;;;;;51.10;24.40;;;;;;;-2.23;85.79;101694.70;100299;1292;79346;-57
2022/12/03 02:37:18;;;;;;;53.20;24.50;;;;;;;-2.22;85.77;101695.35;100244;1294;97794;-58
2022/12/03 02:39:55;;;;;;;53.20;24.30;;;;;;;-2.20;85.76;101700.38;100259;1294;94052;-58
2022/12/03 02:42:38;;;;;;;50.60;24.00;;;;;;;-2.18;85.80;101690.89;100357;1297;81313;-58
2022/12/03 02:45:18;;;;;;;45.50;22.80;;;;;;;-2.16;85.67;101691.52;100381;1297;88329;-56
2022/12/03 02:47:52;;;;;;;50.60;24.40;;;;;;;-2.24;85.78;101693.66;100282;1300;80768;-56
2022/12/03 02:50:27;;;;;;;;;;;;;;;-2.18;85.91;101694.10;100398;1284;96832;-56
2022/12/03 02:52:56;;;;;;;;;;;;;;;-2.18;85.67;101690.56;100314;1292;93785;-59
2022/12/03 02:55:30;;;;;;;43.40;21.80;;;;;;;-2.18;85.78;101688.08;100320;1297;82481;-57
2022/12/03 02:58:03;;;;;;;43.20;22.10;;;;;;;-2.18;85.68;101685.78;100321;1295;88390;-57
2022/12/03 03:00:36;;;;;;;44.20;22.30;;;;;;;-2.16;85.63;101688.70;100301;1292;80197;-58
2022/12/03 03:03:07;;;;;;;44.50;22.10;;;;;;;-2.16;85.57;101685.31;100347;1292;99172;-57
2022/12/03 03:05:38;;;;;;;44.60;21.60;;;;;;;-2.17;85.40;101683.25;100245;1293;93061;-57
2022/12/03 03:08:11;;;;;;;46.80;22.30;;;;;;;-2.20;85.41;101688.54;100333;1297;80493;-57
2022/12/03 03:10:42;;;;;;;41.70;21.60;;;;;;;-2.24;85.66;101683.63;100255;1299;88630;-56
2022/12/03 03:13:15;;;;;;;42.90;22.10;;;;;;;-2.27;85.39;101686.06;100266;1298;81237;-57
2022/12/03 03:15:47;;;;;;;45.60;22.20;;;;;;;-2.26;85.58;101687.10;100260;1290;98714;-57
2022/12/03 03:18:17;;;;;;;40.70;21.10;;;;;;;-2.23;85.67;101684.44;100257;1300;94616;-57
2022/12/03 03:20:49;;;;;;;40.90;22.40;;;;;;;-2.17;85.43;101679.38;100268;1292;81358;-57
2022/12/03 03:23:28;;;;;;;38.70;20.40;;;;;;;-2.14;85.51;101679.05;100291;1293;89144;-57
2022/12/03 03:26:02;;;;;;;39.80;20.60;;;;;;;-2.03;85.51;101678.86;100248;1294;78109;-58
2022/12/03 03:28:35;;;;;;;39.30;21.10;;;;;;;-1.97;85.22;101675.84;100325;1292;96880;-57
2022/12/03 03:31:14;;;;;;;33.10;18.80;;;;;;;-1.93;85.33;101679.55;100296;1298;95045;-57
2022/12/03 03:33:47;;;;;;;38.00;21.30;;;;;;;-1.91;85.21;101680.52;100336;1292;83294;-56
2022/12/03 03:36:22;;;;;;;34.80;20.40;;;;;;;-1.96;85.13;101676.74;100284;1293;87763;-56
2022/12/03 03:38:53;;;;;;;39.30;19.80;;;;;;;-2.00;85.22;101675.83;100314;1299;79441;-56
2022/12/03 03:41:25;;;;;;;42.00;20.60;;;;;;;-2.02;85.32;101672.27;100280;1294;96669;-56
2022/12/03 03:43:56;;;;;;;40.40;21.50;;;;;;;-2.05;85.25;101672.04;100270;1300;93414;-58
2022/12/03 03:46:33;;;;;;;38.40;20.60;;;;;;;-2.08;85.18;101674.85;100282;1300;83339;-58
2022/12/03 03:49:06;;;;;;;38.10;20.10;;;;;;;-2.10;85.08;101675.31;100241;1293;87551;-57
2022/12/03 03:51:41;;;;;;;36.70;19.40;;;;;;;-2.06;85.25;101674.77;100266;1300;81511;-56
2022/12/03 03:54:11;;;;;;;33.00;18.70;;;;;;;-2.03;85.20;101672.51;100257;1292;98796;-58
2022/12/03 03:56:41;;;;;;;39.20;19.90;;;;;;;-2.07;85.27;101667.77;100241;1297;95801;-58
2022/12/03 03:59:12;;;;;;;39.80;21.00;;;;;;;-2.05;85.16;101658.47;100301;1300;82017;-58
2022/12/03 04:01:46;;;;;;;38.40;21.00;;;;;;;-2.00;85.00;101663.15;100253;1290;88839;-58
2022/12/03 04:04:25;;;;;;;35.20;19.30;;;;;;;-2.05;85.15;101664.49;100294;1290;78645;-55
2022/12/03 04:06:56;;;;;;;36.50;19.40;;;;;;;-2.10;85.18;101664.19;100270;1293;99366;-56
2022/12/03 04:09:30;;;;;;;32.70;18.10;;;;;;;-2.16;85.08;101670.52;100243;1297;94699;-56
2022/12/03 04:14:51;;;;;;;39.30;21.50;;;;;;;-2.27;85.20;101668.09;99994;1300;88177;-58
2022/12/03 04:17:21;;;;;;;36.90;21.00;;;;;;;-2.26;85.12;101669.80;100298;1294;80283;-58
2022/12/03 04:19:53;;;;;;;34.30;19.00;;;;;;;-2.26;85.17;101671.71;100299;1299;98088;-58
2022/12/03 04:22:41;;;;;;;34.70;19.90;;;;;;;-2.24;85.15;101670.93;100292;1299;93366;-58
2022/12/03 04:30:56;;;;;;;35.70;20.50;;;;;;;-2.05;85.33;101662.73;100256;1300;77441;-57
2022/12/03 04:36:14;;;;;;;34.00;19.90;;;;;;;-1.97;85.20;101661.95;100236;1298;93066;-58
2022/12/03 04:38:45;;;;;;;35.90;19.90;;;;;;;-1.95;85.06;101662.35;100272;1300;84512;-56
2022/12/03 04:41:14;;;;;;;35.00;20.50;;;;;;;-2.00;84.91;101659.77;100269;1294;86789;-56
2022/12/03 04:46:35;;;;;;;39.00;21.60;;;;;;;-2.10;85.04;101653.41;100266;1297;97515;-55
2022/12/03 04:49:11;;;;;;;38.90;21.10;;;;;;;-2.11;84.90;101652.09;100263;1291;93686;-58
2022/12/03 04:51:40;;;;;;;37.50;20.00;;;;;;;-2.10;84.83;101651.33;100212;1290;84247;-58
2022/12/03 04:54:12;;;;;;;35.90;20.60;;;;;;;-2.09;85.06;101650.57;100270;1298;87751;-58
2022/12/03 04:56:46;;;;;;;36.20;21.00;;;;;;;-2.09;84.98;101648.83;100268;1298;81472;-58
2022/12/03 04:59:18;;;;;;;35.20;19.20;;;;;;;-2.04;85.06;101646.05;100296;1292;99067;-59
2022/12/03 05:01:50;;;;;;;34.70;20.00;;;;;;;-2.00;85.24;101644.48;100223;1294;97374;-58
2022/12/03 05:04:21;;;;;;;33.60;18.90;;;;;;;-1.95;85.28;101643.98;100273;1301;82828;-58
2022/12/03 05:06:52;;;;;;;36.40;19.80;;;;;;;-1.94;85.07;101644.33;100251;1294;89065;-58
2022/12/03 05:09:23;;;;;;;37.80;20.80;;;;;;;-1.94;85.20;101646.23;100304;1292;79874;-55
2022/12/03 05:11:55;;;;;;;35.10;19.40;;;;;;;-1.90;84.99;101644.64;100254;1291;98701;-57
2022/12/03 05:14:29;;;;;;;34.50;19.40;;;;;;;-1.87;84.79;101644.45;100278;1293;93069;-58
2022/12/03 05:17:01;;;;;;;36.50;19.70;;;;;;;-1.94;84.89;101647.46;100292;1291;81481;-58
2022/12/03 05:22:21;;;;;;;38.30;21.30;;;;;;;-2.02;84.83;101643.13;100256;1293;80160;-57
2022/12/03 05:24:50;;;;;;;37.30;20.90;;;;;;;-2.07;85.11;101644.61;100276;1293;98465;-58
2022/12/03 05:27:21;;;;;;;39.00;21.50;;;;;;;-2.05;84.96;101646.13;100253;1290;93840;-58
2022/12/03 05:29:51;;;;;;;37.40;19.90;;;;;;;-2.07;85.09;101641.63;100293;1299;83139;-56
2022/12/03 05:32:21;;;;;;;34.10;18.50;;;;;;;-2.05;84.95;101643.98;100230;1301;87103;-55
2022/12/03 05:34:51;;;;;;;37.60;20.70;;;;;;;-2.00;85.05;101646.23;100293;1290;79843;-58
2022/12/03 05:37:20;;;;;;;36.50;19.20;;;;;;;-1.98;84.91;101643.61;100268;1294;98539;-58
2022/12/03 05:39:52;;;;;;;34.70;20.10;;;;;;;-2.00;84.99;101638.09;100256;1293;95294;-58
2022/12/03 05:45:17;;;;;;;36.30;20.50;;;;;;;-1.95;85.03;101632.20;100299;1300;87639;-58
2022/12/03 05:47:48;;;;;;;;;;;;;;;-1.91;84.91;101633.02;100359;1293;78328;-56
2022/12/03 05:50:19;;;;;;;38.00;19.20;;;;;;;-1.88;85.01;101630.06;100287;1284;97413;-57
2022/12/03 05:52:50;;;;;;;39.20;20.70;;;;;;;-1.86;84.95;101628.70;100278;1290;95365;-56
2022/12/03 05:55:23;;;;;;;35.20;21.00;;;;;;;-1.89;84.79;101624.64;100292;1296;81238;-55
2022/12/03 05:57:53;;;;;;;36.10;19.90;;;;;;;-1.94;84.77;101629.14;100328;1300;87554;-58
2022/12/03 06:00:27;;;;;;;33.60;20.60;;;;;;;-1.99;84.87;101626.23;100257;1297;81578;-57
2022/12/03 06:02:57;;;;;;;40.40;20.70;;;;;;;-2.03;84.97;101625.55;100277;1298;98559;-57
2022/12/03 06:05:34;;;;;;;36.20;20.90;;;;;;;-2.04;84.90;101620.66;100288;1296;95332;-57
2022/12/03 06:08:07;;;;;;;36.60;20.10;;;;;;;-2.04;84.82;101622.77;100280;1300;81750;-58
2022/12/03 06:10:36;;;;;;;40.90;21.90;;;;;;;-2.09;85.03;101624.98;100261;1293;88358;-58
2022/12/03 06:13:05;;;;;;;35.80;20.60;;;;;;;-2.08;85.02;101627.73;100267;1299;79605;-56
2022/12/03 06:15:34;;;;;;;37.00;19.70;;;;;;;-2.03;85.04;101629.77;100245;1298;98604;-56
2022/12/03 06:18:06;;;;;;;35.50;20.90;;;;;;;-2.00;84.98;101626.98;100261;1294;95426;-58
2022/12/03 06:20:43;;;;;;;32.50;18.50;;;;;;;-1.94;84.93;101625.40;100183;1299;81894;-58
2022/12/03 06:23:12;;;;;;;35.60;20.90;;;;;;;-1.95;85.00;101625.79;100214;1293;88823;-59
2022/12/03 06:25:43;;;;;;;36.70;20.20;;;;;;;-1.90;85.02;101625.02;100285;1300;80267;-59
2022/12/03 06:28:17;;;;;;;36.00;20.90;;;;;;;-1.88;85.02;101627.71;100330;1298;97578;-58
2022/12/03 06:30:46;;;;;;;;;;;;;;;-1.85;84.87;101633.09;100273;1301;93440;-58
2022/12/03 06:33:16;;;;;;;36.50;20.00;;;;;;;-1.90;84.86;101636.69;100322;1292;82385;-56
2022/12/03 06:35:49;;;;;;;34.50;19.80;;;;;;;-1.92;84.87;101637.31;100264;1293;89921;-56
2022/12/03 06:38:19;;;;;;;38.20;21.60;;;;;;;-1.97;84.83;101646.19;100277;1298;81330;-57
2022/12/03 06:40:51;;;;;;;36.50;19.40;;;;;;;-1.96;84.83;101643.88;100214;1301;98055;-57
2022/12/03 06:43:25;;;;;;;37.30;20.30;;;;;;;-1.96;84.84;101644.73;100285;1298;94808;-57
2022/12/03 06:45:54;;;;;;;36.50;20.80;;;;;;;-1.92;84.97;101642.95;100272;1300;79438;-57
2022/12/03 06:48:26;;;;;;;35.00;20.00;;;;;;;-1.89;85.08;101650.55;100256;1300;88401;-58
2022/12/03 06:50:55;;;;;;;37.00;20.30;;;;;;;-1.82;85.09;101647.57;100231;1300;80402;-58
2022/12/03 06:53:30;;;;;;;35.30;21.30;;;;;;;-1.73;84.83;101648.67;100266;1291;98785;-58
2022/12/03 06:56:02;;;;;;;33.00;19.90;;;;;;;-1.69;85.02;101655.69;100156;1301;96860;-57
2022/12/03 06:58:35;;;;;;;30.80;19.40;;;;;;;-1.63;84.92;101660.50;100292;1290;82421;-58
2022/12/03 07:01:07;;;;;;;32.40;20.30;;;;;;;-1.67;84.79;101659.52;100304;1298;88397;-58
2022/12/03 07:03:38;;;;;;;28.30;16.50;;;;;;;-1.66;84.75;101660.67;100315;1298;79771;-56
2022/12/03 07:06:12;;;;;;;34.50;19.60;;;;;;;-1.66;84.76;101656.27;100322;1291;97004;-56
2022/12/03 07:08:45;;;;;;;37.20;20.10;;;;;;;-1.68;84.58;101653.73;100198;1294;93384;-56
2022/12/03 07:11:31;;;;;;;42.70;25.00;;;;;;;-1.70;84.66;101652.59;100303;1291;81982;-57
2022/12/03 07:14:05;;;;;;;42.50;24.60;;;;;;;-1.67;84.49;101652.42;100314;1300;87443;-56
2022/12/03 07:16:37;;;;;;;47.40;27.50;;;;;;;-1.63;84.62;101651.33;100274;1300;80907;-56
2022/12/03 07:19:08;;;;;;;38.40;22.80;;;;;;;-1.60;84.67;101656.09;100315;1299;97308;-56
2022/12/03 07:21:39;;;;;;;40.40;22.30;;;;;;;-1.60;84.82;101654.50;100257;1300;95046;-57
2022/12/03 07:24:11;;;;;;;37.90;21.60;;;;;;;-1.57;84.88;101649.94;100186;1292;85050;-59
2022/12/03 07:26:46;;;;;;;35.60;21.70;;;;;;;-1.54;84.81;101646.07;100267;1291;89633;-59
2022/12/03 07:29:16;;;;;;;38.60;20.70;;;;;;;-1.44;84.69;101645.19;100290;1299;79823;-58
2022/12/03 07:31:46;;;;;;;38.00;21.80;;;;;;;-1.41;84.74;101645.71;100295;1298;98483;-58
2022/12/03 07:34:15;;;;;;;39.20;21.40;;;;;;;-1.43;84.72;101642.96;100301;1300;95289;-58
2022/12/03 07:36:44;;;;;;;39.30;22.80;;;;;;;-1.46;84.78;101642.64;100287;1298;83734;-58
2022/12/03 07:39:16;;;;;;;38.00;22.20;;;;;;;-1.48;84.85;101639.39;100304;1296;89117;-58
2022/12/03 07:41:48;;;;;;;37.40;21.80;;;;;;;-1.51;84.67;101639.00;100351;1300;80545;-59
2022/12/03 07:44:20;;;;;;;38.60;21.00;;;;;;;-1.54;84.76;101636.34;100384;1300;96683;-60
2022/12/03 07:46:51;;;;;;;39.10;21.80;;;;;;;-1.52;84.76;101633.77;100301;1298;95828;-60
2022/12/03 07:49:22;;;;;;;35.10;19.80;;;;;;;-1.48;84.86;101635.35;100236;1295;83069;-58
2022/12/03 07:51:53;;;;;;;37.40;20.20;;;;;;;-1.42;84.82;101633.77;100325;1293;88862;-57
2022/12/03 07:54:23;;;;;;;34.40;20.30;;;;;;;-1.40;84.79;101632.40;100304;1300;81626;-57
2022/12/03 07:56:55;;;;;;;34.30;20.30;;;;;;;-1.35;84.92;101633.37;100279;1300;98879;-56
2022/12/03 07:59:29;;;;;;;35.50;20.50;;;;;;;-1.40;84.98;101630.99;100275;1299;95386;-59
2022/12/03 08:02:01;;;;;;;37.00;21.10;;;;;;;-1.45;84.99;101627.38;100301;1300;83153;-58
2022/12/03 08:04:35;;;;;;;37.30;21.50;;;;;;;-1.37;85.13;101629.24;100274;1293;86311;-58
2022/12/03 08:07:07;;;;;;;38.20;23.80;;;;;;;-1.37;84.93;101630.13;100241;1297;77410;-58
2022/12/03 08:09:40;;;;;;;35.70;21.80;;;;;;;-1.35;84.95;101627.21;100255;1284;96693;-58
2022/12/03 08:12:38;;;;;;;38.80;22.00;;;;;;;-1.38;84.99;101630.00;100251;1292;94539;-58
2022/12/03 08:15:16;;;;;;;46.30;23.40;;;;;;;-1.40;84.97;101631.20;100259;1300;82713;-58
2022/12/03 08:17:57;;;;;;;41.40;23.50;;;;;;;-1.38;85.17;101628.08;100286;1298;85471;-57
2022/12/03 08:20:39;;;;;;;44.80;26.10;;;;;;;-1.39;85.22;101627.23;100268;1298;79110;-58
2022/12/03 08:23:15;;;;;;;50.00;27.60;;;;;;;-1.28;85.17;101627.33;99904;1295;555249;-56
2022/12/03 08:25:46;;;;;;;53.60;29.10;;;;;;;-1.27;85.24;101626.02;100311;1298;93861;-57
2022/12/03 08:28:21;;;;;;;48.80;26.40;;;;;;;-1.18;85.19;101628.73;100352;1302;81373;-57
2022/12/03 08:31:01;;;;;;;54.80;29.10;;;;;;;-1.10;85.29;101627.04;100334;1296;88290;-59
2022/12/03 08:33:34;;;;;;;52.30;26.10;;;;;;;-1.04;85.30;101630.41;100397;1298;79171;-59
2022/12/03 08:36:10;;;;;;;49.40;26.10;;;;;;;-1.01;85.30;101630.59;100302;1301;98624;-59
2022/12/03 08:39:14;;;;;;;45.80;24.70;;;;;;;-0.99;85.22;101629.60;100300;1300;95233;-59
2022/12/03 08:44:41;;;;;;;40.20;24.10;;;;;;;-1.05;85.37;101634.70;100325;1298;88188;-56
2022/12/03 08:47:20;;;;;;;64.00;31.10;;;;;;;-1.01;85.34;101635.52;100334;1302;80475;-56
2022/12/03 08:50:10;;;;;;;50.60;26.20;;;;;;;-1.01;85.35;101636.95;100302;1295;98510;-57
2022/12/03 08:52:43;;;;;;;48.90;26.10;;;;;;;-0.99;85.31;101637.74;100323;1297;94437;-59
2022/12/03 08:55:37;;;;;;;39.70;22.70;;;;;;;-0.98;85.38;101635.92;100301;1298;83180;-60
2022/12/03 08:58:23;;;;;;;46.20;25.90;;;;;;;-0.95;85.36;101635.69;100318;1300;89852;-59
2022/12/03 09:04:27;;;;;;;41.50;23.60;;;;;;;-0.89;85.61;101632.55;100309;1300;97568;-58
2022/12/03 09:07:02;;;;;;;38.60;21.40;;;;;;;-0.84;85.58;101626.42;100289;1300;95668;-56
2022/12/03 09:09:33;;;;;;;34.00;20.20;;;;;;;-0.78;85.62;101625.23;100314;1293;81017;-57
2022/12/03 09:12:08;;;;;;;;;;;;;;;-0.74;85.60;101620.40;100299;1293;88101;-56
2022/12/03 09:14:44;;;;;;;38.20;22.80;;;;;;;-0.82;85.58;101622.26;100393;1296;79708;-59
2022/12/03 09:17:14;;;;;;;40.40;24.40;;;;;;;-0.76;85.62;101624.91;100369;1298;98686;-59
2022/12/03 09:19:51;;;;;;;36.20;22.90;;;;;;;-0.70;85.62;101626.31;100330;1295;94588;-60
2022/12/03 09:22:26;;;;;;;38.80;22.50;;;;;;;-0.71;85.56;101624.44;100313;1300;81257;-59
2022/12/03 09:24:58;;;;;;;35.10;20.10;;;;;;;-0.75;85.54;101621.14;100300;1301;88038;-57
2022/12/03 09:27:33;;;;;;;40.60;24.70;;;;;;;-0.79;85.57;101616.95;100273;1296;79772;-57
2022/12/03 09:30:09;;;;;;;39.10;23.80;;;;;;;-0.71;85.56;101612.40;100288;1300;97003;-59
2022/12/03 09:32:42;;;;;;;35.10;22.70;;;;;;;-0.61;85.74;101608.15;100335;1300;94697;-58
2022/12/03 09:35:14;;;;;;;31.80;21.60;;;;;;;-0.54;85.72;101612.48;100204;1300;83118;-57
2022/12/03 09:37:48;;;;;;;33.10;21.10;;;;;;;-0.59;85.78;101608.69;100287;1300;88341;-56
2022/12/03 09:40:24;;;;;;;35.20;22.20;;;;;;;-0.48;85.65;101606.27;100261;1296;81389;-56
2022/12/03 09:42:59;;;;;;;37.30;22.20;;;;;;;-0.37;85.79;101605.65;100199;1300;97180;-60
2022/12/03 09:45:32;;;;;;;35.50;21.20;;;;;;;-0.27;85.74;101598.52;100290;1297;94652;-58
2022/12/03 09:48:06;;;;;;;36.60;22.10;;;;;;;-0.28;85.68;101595.05;100311;1284;80493;-58
2022/12/03 09:50:41;;;;;;;37.20;22.40;;;;;;;-0.23;85.68;101594.55;100227;1292;88732;-57
2022/12/03 09:53:14;;;;;;;35.00;22.10;;;;;;;-0.22;85.54;101598.70;100340;1294;77354;-57
2022/12/03 09:55:46;;;;;;;38.70;21.20;;;;;;;-0.23;85.62;101598.46;100215;1289;98892;-57
2022/12/03 09:58:21;;;;;;;34.50;22.10;;;;;;;-0.31;85.57;101598.22;100341;1290;95864;-58
2022/12/03 10:00:53;;;;;;;37.50;22.10;;;;;;;-0.31;85.43;101596.08;100343;1295;81543;-58
2022/12/03 10:03:30;;;;;;;35.80;22.40;;;;;;;-0.38;85.53;101592.98;100342;1300;87356;-57
2022/12/03 10:06:01;;;;;;;37.30;22.80;;;;;;;-0.31;85.56;101593.59;100274;1298;78800;-58
2022/12/03 10:08:30;;;;;;;37.60;22.80;;;;;;;-0.24;85.49;101587.35;100303;1301;98010;-60
2022/12/03 10:11:01;;;;;;;36.50;22.00;;;;;;;-0.18;85.59;101585.90;100258;1294;95036;-61
2022/12/03 10:13:33;;;;;;;36.50;22.90;;;;;;;-0.11;85.60;101581.98;100298;1298;81598;-58
2022/12/03 10:16:07;;;;;;;37.50;23.40;;;;;;;-0.03;85.63;101586.91;100314;1294;86571;-59
2022/12/03 10:18:47;;;;;;;36.70;24.80;;;;;;;0.15;85.67;101581.05;100243;1300;78749;-58
2022/12/03 10:21:29;;;;;;;37.00;25.30;;;;;;;0.31;85.61;101576.88;100308;1294;99178;-59
2022/12/03 10:24:27;;;;;;;43.80;26.60;;;;;;;0.47;85.41;101577.25;100279;1300;93408;-57
2022/12/03 10:26:56;;;;;;;;;;;;;;;0.51;85.39;101577.90;100317;1298;82144;-57
2022/12/03 10:29:31;;;;;;;43.00;25.60;;;;;;;0.57;85.47;101573.80;100294;1298;89269;-57
2022/12/03 10:32:06;;;;;;;43.20;26.90;;;;;;;0.66;85.17;101569.90;100283;1297;79143;-56
2022/12/03 10:38:25;;;;;;;39.40;25.70;;;;;;;0.52;84.94;101578.53;100246;1294;97630;-59
2022/12/03 10:41:24;;;;;;;44.20;26.10;;;;;;;0.51;84.86;101578.59;100322;1291;80334;-60
2022/12/03 10:44:14;;;;;;;41.40;27.40;;;;;;;0.54;84.84;101576.80;100340;1298;88951;-60
2022/12/03 10:47:04;;;;;;;37.90;23.40;;;;;;;0.49;84.90;101572.86;100314;1301;80001;-58
2022/12/03 10:49:39;;;;;;;40.30;26.50;;;;;;;0.49;84.99;101565.41;100297;1292;97157;-56
2022/12/03 10:52:26;;;;;;;44.10;28.30;;;;;;;0.55;84.87;101556.90;100295;1300;93889;-57
2022/12/03 10:55:06;;;;;;;42.30;28.20;;;;;;;0.60;84.86;101555.36;100305;1300;80942;-60
2022/12/03 10:57:35;;;;;;;42.30;26.50;;;;;;;0.56;84.85;101557.16;100183;1295;87664;-61
2022/12/03 11:00:10;;;;;;;40.30;26.30;;;;;;;0.55;84.76;101556.73;100206;1293;80218;-58
2022/12/03 11:02:45;;;;;;;44.30;27.10;;;;;;;0.51;84.89;101553.10;100309;1290;97335;-59
2022/12/03 11:05:44;;;;;;;42.70;25.30;;;;;;;0.46;84.72;101556.98;100300;1294;95423;-58
2022/12/03 11:08:25;;;;;;;41.20;24.90;;;;;;;0.39;84.92;101552.43;100266;1293;82947;-59
2022/12/03 11:14:36;;;;;;;37.30;23.30;;;;;;;0.37;84.93;101558.21;100358;1300;80957;-56
2022/12/03 11:17:35;;;;;;;39.30;26.20;;;;;;;0.34;85.17;101550.30;100338;1292;96769;-56
2022/12/03 11:20:12;;;;;;;44.00;25.30;;;;;;;0.37;85.17;101553.25;100341;1298;94973;-61
2022/12/03 11:23:05;;;;;;;42.50;24.70;;;;;;;0.44;85.16;101546.95;100339;1297;83229;-58
2022/12/03 11:25:56;;;;;;;48.20;25.70;;;;;;;0.51;85.10;101545.48;100372;1300;89048;-59
2022/12/03 11:29:00;;;;;;;48.40;26.90;;;;;;;0.55;85.11;101553.69;100313;1292;78949;-57
2022/12/03 11:34:59;;;;;;;44.30;26.50;;;;;;;0.57;85.03;101553.56;100251;1291;94929;-60
2022/12/03 11:37:39;;;;;;;50.20;29.60;;;;;;;0.52;85.22;101544.84;100288;1297;82123;-59
2022/12/03 11:40:37;;;;;;;67.90;34.80;;;;;;;0.49;85.36;101544.36;100144;1298;90489;-58
2022/12/03 11:43:17;;;;;;;79.10;41.40;;;;;;;0.49;85.24;101547.17;100272;1295;81258;-55
2022/12/03 11:45:51;;;;;;;55.70;28.20;;;;;;;0.49;85.31;101545.60;100300;1293;99205;-55
2022/12/03 11:48:29;;;;;;;56.20;30.30;;;;;;;0.46;85.31;101544.73;100265;1293;95568;-56
2022/12/03 11:51:03;;;;;;;57.10;30.60;;;;;;;0.51;85.32;101545.13;100325;1284;81511;-56
2022/12/03 11:57:56;;;;;;;62.80;30.50;;;;;;;0.71;85.43;101536.73;100321;1300;77606;-58
2022/12/03 12:00:33;;;;;;;53.00;29.10;;;;;;;0.72;85.49;101532.27;100328;1300;97201;-56
2022/12/03 12:03:05;;;;;;;51.10;29.90;;;;;;;0.73;85.49;101528.11;100330;1293;94753;-57
2022/12/03 12:05:42;;;;;;;41.30;24.90;;;;;;;0.79;85.43;101520.98;100224;1301;81743;-57
2022/12/03 12:08:29;;;;;;;42.50;23.80;;;;;;;0.82;85.38;101513.86;100310;1290;88537;-58
2022/12/03 12:11:26;;;;;;;45.40;26.90;;;;;;;0.79;85.44;101515.48;100251;1300;79285;-59
2022/12/03 12:14:00;;;;;;;40.60;24.00;;;;;;;0.77;85.39;101520.79;100200;1295;96741;-56
2022/12/03 12:16:50;;;;;;;;;;;;;;;0.80;85.30;101524.61;100302;1313;94038;-56
2022/12/03 12:19:46;;;;;;;39.20;24.50;;;;;;;0.79;85.41;101524.52;100268;1292;80955;-58